createdAt,value
2023-03-05T00:07:20.058Z,59.57
2023-03-05T00:17:33.143Z,55.13
2023-03-05T00:22:39.845Z,47.08
2023-03-05T00:27:45.959Z,38.10
2023-03-05T00:37:59.232Z,47.70
2023-03-05T00:43:06.016Z,56.70
2023-03-05T00:48:12.937Z,63.17
2023-03-05T00:53:19.803Z,48.42
2023-03-05T00:58:25.980Z,63.55
2023-03-05T01:08:40.518Z,60.87
2023-03-05T01:13:46.994Z,53.22
2023-03-05T01:18:53.299Z,59.90
2023-03-05T01:29:06.457Z,54.22
2023-03-05T01:34:18.511Z,73.93
2023-03-05T01:39:24.920Z,61.33
2023-03-05T01:44:33.333Z,67.97
2023-03-05T01:49:42.944Z,63.88
2023-03-05T01:55:08.315Z,55.35
2023-03-05T02:00:24.753Z,47.60
2023-03-05T02:10:53.535Z,61.78
2023-03-05T02:16:03.821Z,47.67
2023-03-05T02:21:12.681Z,53.58
2023-03-05T02:26:20.447Z,48.25
2023-03-05T02:31:28.365Z,61.85
2023-03-05T02:36:35.343Z,60.15
2023-03-05T02:41:42.077Z,64.55
2023-03-05T02:46:49.013Z,66.18
2023-03-05T02:51:55.684Z,57.90
2023-03-05T02:57:02.638Z,64.13
2023-03-05T03:02:09.325Z,63.30
2023-03-05T03:07:16.729Z,67.78
2023-03-05T03:12:23.339Z,61.45
2023-03-05T03:17:30.047Z,58.00
2023-03-05T03:22:36.754Z,48.88
2023-03-05T03:27:43.482Z,59.97
2023-03-05T03:32:50.061Z,64.50
2023-03-05T03:37:56.728Z,52.03
2023-03-05T03:43:03.236Z,61.03
2023-03-05T03:48:09.866Z,54.95
2023-03-05T03:53:16.506Z,55.92
2023-03-05T03:58:23.128Z,56.95
2023-03-05T04:03:29.620Z,59.65
2023-03-05T04:08:35.849Z,57.10
2023-03-05T04:18:48.483Z,55.53
2023-03-05T04:23:54.875Z,46.25
2023-03-05T04:29:01.380Z,53.60
2023-03-05T04:34:08.740Z,68.65
2023-03-05T04:39:15.404Z,69.35
2023-03-05T04:44:25.032Z,62.33
2023-03-05T04:49:31.900Z,70.90
2023-03-05T04:54:38.236Z,69.20
2023-03-05T04:59:44.743Z,74.82
2023-03-05T05:04:54.551Z,76.13
2023-03-05T05:10:01.071Z,66.68
2023-03-05T05:15:08.704Z,56.67
2023-03-05T05:20:17.082Z,58.55
2023-03-05T05:25:23.671Z,53.45
2023-03-05T05:30:29.762Z,66.57
2023-03-05T05:35:36.868Z,61.50
2023-03-05T05:40:43.615Z,68.32
2023-03-05T05:45:50.246Z,66.72
2023-03-05T05:50:57.055Z,63.10
2023-03-05T06:01:55.113Z,51.63
2023-03-05T06:07:02.001Z,67.22
2023-03-05T06:12:08.896Z,62.20
2023-03-05T06:17:25.076Z,66.40
2023-03-05T06:22:40.642Z,74.07
2023-03-05T06:27:47.648Z,71.97
2023-03-05T06:32:53.916Z,67.75
2023-03-05T06:43:06.401Z,38.80
2023-03-05T06:48:14.519Z,42.67
2023-03-05T06:53:21.570Z,44.83
2023-03-05T06:58:27.915Z,74.20
2023-03-05T07:03:35.167Z,50.20
2023-03-05T07:08:48.716Z,86.28
2023-03-05T07:13:55.128Z,79.80
2023-03-05T07:19:04.579Z,73.90
2023-03-05T07:24:11.988Z,44.90
2023-03-05T07:29:18.317Z,45.75
2023-03-05T07:34:27.183Z,74.07
2023-03-05T07:39:34.306Z,63.83
2023-03-05T07:44:40.771Z,49.28
2023-03-05T07:49:47.872Z,91.63
2023-03-05T07:54:54.182Z,65.53
2023-03-05T08:00:00.584Z,33.03
2023-03-05T08:05:18.371Z,64.03
2023-03-05T08:10:24.724Z,78.63
2023-03-05T08:20:40.066Z,73.65
2023-03-05T08:25:46.470Z,49.80
2023-03-05T08:31:03.931Z,95.97
2023-03-05T08:36:12.153Z,90.55
2023-03-05T08:41:20.440Z,99.60
2023-03-05T08:46:27.201Z,94.57
2023-03-05T08:51:33.601Z,99.05
2023-03-05T08:56:40.460Z,90.82
2023-03-05T09:01:48.284Z,70.72
2023-03-05T09:06:54.397Z,86.20
2023-03-05T09:12:02.233Z,58.50
2023-03-05T09:17:08.717Z,86.38
2023-03-05T09:22:15.232Z,69.15
2023-03-05T09:27:26.183Z,39.75
2023-03-05T09:32:33.921Z,79.40
2023-03-05T09:37:42.100Z,54.80
2023-03-05T09:43:04.727Z,50.03
2023-03-05T09:48:48.386Z,60.05
2023-03-05T09:54:02.965Z,65.43
2023-03-05T09:59:42.555Z,93.70
2023-03-05T10:05:02.343Z,89.97
2023-03-05T10:10:36.272Z,89.25
2023-03-05T10:16:27.360Z,85.75
2023-03-05T10:21:45.922Z,93.75
2023-03-05T10:27:01.506Z,88.63
2023-03-05T10:32:50.189Z,91.55
2023-03-05T10:38:20.745Z,89.30
2023-03-05T10:43:45.825Z,89.53
2023-03-05T10:49:02.117Z,89.00
2023-03-05T10:59:46.327Z,88.85
2023-03-05T11:04:58.514Z,85.63
2023-03-05T11:16:06.616Z,87.32
2023-03-05T11:21:25.707Z,81.55
2023-03-05T11:27:10.325Z,93.95
2023-03-05T11:32:58.255Z,83.35
2023-03-05T11:38:11.534Z,81.30
2023-03-05T11:43:28.284Z,80.15
2023-03-05T11:49:45.273Z,80.95
2023-03-05T11:55:19.035Z,78.17
2023-03-05T12:00:35.658Z,80.43
2023-03-05T12:06:03.625Z,73.95
2023-03-05T12:11:28.532Z,68.32
2023-03-05T12:16:45.233Z,74.72
2023-03-05T12:21:57.971Z,78.45
2023-03-05T12:34:43.450Z,73.03
2023-03-05T12:39:59.573Z,69.35
2023-03-05T12:45:16.393Z,72.30
2023-03-05T12:50:36.148Z,70.43
2023-03-05T12:55:52.325Z,80.38
2023-03-05T13:01:19.955Z,73.13
2023-03-05T13:06:36.138Z,62.00
2023-03-05T13:25:23.122Z,64.05
2023-03-05T13:30:45.086Z,36.28
2023-03-05T13:42:10.976Z,70.68
2023-03-05T13:47:33.163Z,52.08
2023-03-05T14:13:33.523Z,66.78
2023-03-05T14:19:09.155Z,70.45
2023-03-05T14:30:12.165Z,69.97
2023-03-05T14:35:52.639Z,69.35
2023-03-05T14:41:53.792Z,61.25
2023-03-05T14:47:11.167Z,68.85
2023-03-05T14:53:39.614Z,38.30
2023-03-05T15:20:46.778Z,68.53
2023-03-05T15:25:54.059Z,78.30
2023-03-05T15:31:21.700Z,76.00
2023-03-05T15:41:50.511Z,76.70
2023-03-05T15:47:03.887Z,74.50
2023-03-05T15:52:31.704Z,76.00
2023-03-05T15:57:51.305Z,73.85
2023-03-05T16:03:15.328Z,75.70
2023-03-05T16:09:23.651Z,70.53
2023-03-05T16:14:32.353Z,64.53
2023-03-05T16:25:10.947Z,72.57
2023-03-05T16:30:32.109Z,75.97
2023-03-05T16:41:12.740Z,75.50
2023-03-05T16:46:19.706Z,75.78
2023-03-05T16:51:30.330Z,74.88
2023-03-05T16:56:45.799Z,76.43
2023-03-05T17:01:52.000Z,74.90
2023-03-05T17:06:58.587Z,78.50
2023-03-05T17:12:05.477Z,74.22
2023-03-05T17:17:12.231Z,83.72
2023-03-05T17:22:36.279Z,86.22
2023-03-05T17:27:42.376Z,72.70
2023-03-05T17:32:48.850Z,82.10
2023-03-05T17:48:51.934Z,79.72
2023-03-05T17:54:26.962Z,91.88
2023-03-05T17:59:33.654Z,78.82
2023-03-05T18:04:40.133Z,84.25
2023-03-05T18:09:46.761Z,79.20
2023-03-05T18:14:53.409Z,88.82
2023-03-05T18:20:02.155Z,85.40
2023-03-05T18:25:12.955Z,77.15
2023-03-05T18:30:20.941Z,83.07
2023-03-05T18:35:27.540Z,86.65
2023-03-05T18:40:37.944Z,81.30
2023-03-05T18:45:45.051Z,96.97
2023-03-05T18:50:56.088Z,93.68
2023-03-05T18:56:03.447Z,86.90
2023-03-05T19:01:11.536Z,85.78
2023-03-05T19:06:19.538Z,88.28
2023-03-05T19:11:26.075Z,89.88
2023-03-05T19:16:40.442Z,86.72
2023-03-05T19:21:58.946Z,86.75
2023-03-05T19:27:11.925Z,98.47
2023-03-05T19:32:20.333Z,77.97
2023-03-05T19:37:29.608Z,96.60
2023-03-05T19:42:37.563Z,98.57
2023-03-05T19:47:45.163Z,113.57
2023-03-05T19:52:51.237Z,110.10
2023-03-05T20:03:08.116Z,90.03
2023-03-05T20:08:14.783Z,93.85
2023-03-05T20:13:22.477Z,94.00
2023-03-05T20:18:28.909Z,89.90
2023-03-05T20:23:35.545Z,82.78
2023-03-05T20:28:41.705Z,97.50
2023-03-05T20:39:48.631Z,91.10
2023-03-05T20:40:13.800Z,79.78
2023-03-05T20:44:55.798Z,84.57
2023-03-05T20:50:02.698Z,75.18
2023-03-05T20:55:10.636Z,74.00
2023-03-05T21:00:17.480Z,74.55
2023-03-05T21:05:29.068Z,79.10
2023-03-05T21:10:35.525Z,85.00
2023-03-05T21:15:43.887Z,78.43
2023-03-05T21:20:50.360Z,85.70
2023-03-05T21:25:57.872Z,68.72
2023-03-05T21:31:11.081Z,77.20
2023-03-05T21:36:24.993Z,96.90
2023-03-05T21:41:33.382Z,84.25
2023-03-05T21:46:39.823Z,89.60
2023-03-05T21:52:13.863Z,99.75
2023-03-05T21:57:20.283Z,92.20
2023-03-05T22:02:34.299Z,87.82
2023-03-05T22:07:44.807Z,80.93
2023-03-05T22:13:22.989Z,91.10
2023-03-05T22:18:32.248Z,96.82
2023-03-05T22:23:38.571Z,92.13
2023-03-05T22:33:54.059Z,85.10
2023-03-05T22:39:00.705Z,96.05
2023-03-05T22:44:25.029Z,86.72
2023-03-05T22:49:31.954Z,88.93
2023-03-05T22:54:41.139Z,95.53
2023-03-05T22:59:59.191Z,89.15
2023-03-05T23:05:05.977Z,97.03
2023-03-05T23:10:26.666Z,97.03
2023-03-05T23:15:36.592Z,94.35
2023-03-05T23:20:43.182Z,85.60
2023-03-05T23:25:52.669Z,88.13
2023-03-05T23:31:17.930Z,87.28
2023-03-05T23:36:28.021Z,81.45
2023-03-05T23:41:34.444Z,90.35
2023-03-05T23:46:44.735Z,84.85
2023-03-05T23:51:55.809Z,76.28
2023-03-05T23:57:02.443Z,81.65
